createdAt,value
2022-09-06T00:02:24.000Z,5.98
2022-09-06T00:07:25.000Z,6.87
2022-09-06T00:12:24.000Z,6
2022-09-06T00:17:24.000Z,5.82
2022-09-06T00:22:24.000Z,5.96
2022-09-06T00:27:25.000Z,5.6
2022-09-06T00:32:24.000Z,5.55
2022-09-06T00:37:25.000Z,5.53
2022-09-06T00:42:24.000Z,5.4
2022-09-06T00:47:25.000Z,5.78
2022-09-06T00:52:25.000Z,5.91
2022-09-06T00:57:25.000Z,6.14
2022-09-06T01:02:24.000Z,5.86
2022-09-06T01:07:24.000Z,5.82
2022-09-06T01:12:24.000Z,5.52
2022-09-06T01:17:24.000Z,5.72
2022-09-06T01:22:24.000Z,5.23
2022-09-06T01:27:24.000Z,5.08
2022-09-06T01:32:24.000Z,5.12
2022-09-06T01:37:24.000Z,5.08
2022-09-06T01:42:24.000Z,5.25
2022-09-06T01:47:24.000Z,4.94
2022-09-06T01:52:25.000Z,5.01
2022-09-06T02:02:25.000Z,5.89
2022-09-06T02:07:24.000Z,5.29
2022-09-06T02:12:25.000Z,5.16
2022-09-06T02:17:25.000Z,4.94
2022-09-06T02:22:24.000Z,5.23
2022-09-06T02:27:24.000Z,4.9
2022-09-06T02:32:24.000Z,4.99
2022-09-06T02:37:24.000Z,4.81
2022-09-06T02:42:25.000Z,6.07
2022-09-06T02:47:24.000Z,5.27
2022-09-06T02:52:24.000Z,5.29
2022-09-06T02:57:24.000Z,5.22
2022-09-06T03:02:24.000Z,4.94
2022-09-06T03:07:25.000Z,5.48
2022-09-06T03:12:24.000Z,5.59
2022-09-06T03:17:25.000Z,5.23
2022-09-06T03:22:24.000Z,5.51
2022-09-06T03:27:24.000Z,5.57
2022-09-06T03:32:24.000Z,5.82
2022-09-06T03:37:24.000Z,5.92
2022-09-06T03:42:25.000Z,5.82
2022-09-06T03:47:24.000Z,5.41
2022-09-06T03:52:25.000Z,5.2
2022-09-06T03:57:24.000Z,5.74
2022-09-06T04:02:24.000Z,5.59
2022-09-06T04:07:24.000Z,5.56
2022-09-06T04:12:24.000Z,5.62
2022-09-06T04:17:24.000Z,5.56
2022-09-06T04:22:24.000Z,5.76
2022-09-06T04:27:24.000Z,5.43
2022-09-06T04:32:24.000Z,5.97
2022-09-06T04:37:24.000Z,5.67
2022-09-06T04:42:25.000Z,6.54
2022-09-06T04:47:24.000Z,5.63
2022-09-06T04:52:24.000Z,5.62
2022-09-06T04:57:24.000Z,5.49
2022-09-06T05:02:25.000Z,5.63
2022-09-06T05:07:25.000Z,5.43
2022-09-06T05:12:24.000Z,5.78
2022-09-06T05:17:24.000Z,5.99
2022-09-06T05:22:25.000Z,5.42
2022-09-06T05:27:24.000Z,5.97
2022-09-06T05:32:25.000Z,5.26
2022-09-06T05:37:25.000Z,4.51
2022-09-06T05:42:24.000Z,4.63
2022-09-06T05:47:25.000Z,4.63
2022-09-06T05:52:24.000Z,4.83
2022-09-06T05:57:24.000Z,4.81
2022-09-06T06:02:24.000Z,5.06
2022-09-06T06:07:24.000Z,5.23
2022-09-06T06:12:25.000Z,5.33
2022-09-06T06:17:25.000Z,5.33
2022-09-06T06:22:25.000Z,5.74
2022-09-06T06:32:24.000Z,5.38
2022-09-06T06:37:24.000Z,5.64
2022-09-06T06:42:25.000Z,5.92
2022-09-06T06:47:24.000Z,6.37
2022-09-06T06:52:25.000Z,5.79
2022-09-06T06:57:24.000Z,6.3
2022-09-06T07:02:24.000Z,6.48
2022-09-06T07:07:24.000Z,6.91
2022-09-06T07:12:24.000Z,6.13
2022-09-06T07:17:24.000Z,6.12
2022-09-06T07:22:24.000Z,6.09
2022-09-06T07:27:25.000Z,6.1
2022-09-06T07:32:25.000Z,6.53
2022-09-06T07:42:25.000Z,6.63
2022-09-06T07:57:25.000Z,6.94
2022-09-06T08:02:25.000Z,6.38
2022-09-06T08:07:24.000Z,6.58
2022-09-06T08:17:24.000Z,7.57
2022-09-06T08:22:24.000Z,6.76
2022-09-06T08:27:24.000Z,6.41
2022-09-06T08:32:25.000Z,5.3
2022-09-06T08:37:24.000Z,5.33
2022-09-06T08:42:24.000Z,6.13
2022-09-06T08:52:24.000Z,5.11
2022-09-06T08:57:24.000Z,5.23
2022-09-06T09:02:24.000Z,4.86
2022-09-06T09:07:25.000Z,5.1
2022-09-06T09:12:25.000Z,4.88
2022-09-06T09:17:25.000Z,5.35
2022-09-06T09:27:24.000Z,4.84
2022-09-06T09:32:24.000Z,5.55
2022-09-06T09:37:24.000Z,5
2022-09-06T09:42:25.000Z,5.77
2022-09-06T09:47:25.000Z,5.64
2022-09-06T09:52:24.000Z,5.15
2022-09-06T09:57:24.000Z,5.84
2022-09-06T10:02:24.000Z,5.64
2022-09-06T10:07:25.000Z,5.2
2022-09-06T10:12:24.000Z,5.49
2022-09-06T10:17:25.000Z,5.37
2022-09-06T10:22:25.000Z,7.25
2022-09-06T10:27:24.000Z,5.46
2022-09-06T10:32:24.000Z,5.22
2022-09-06T10:37:25.000Z,4.61
2022-09-06T10:42:24.000Z,5.41
2022-09-06T10:47:25.000Z,4.82
2022-09-06T10:52:24.000Z,4.85
2022-09-06T11:02:25.000Z,6.19
2022-09-06T11:07:25.000Z,5.46
2022-09-06T11:12:25.000Z,5.03
2022-09-06T11:17:24.000Z,5.34
2022-09-06T11:22:25.000Z,5.28
2022-09-06T11:27:25.000Z,5.09
2022-09-06T11:32:24.000Z,5.01
2022-09-06T11:37:24.000Z,4.97
2022-09-06T11:47:24.000Z,5.12
2022-09-06T11:52:24.000Z,4.91
2022-09-06T11:57:25.000Z,5.13
2022-09-06T12:02:25.000Z,5.04
2022-09-06T12:07:25.000Z,5.07
2022-09-06T12:12:24.000Z,5.01
2022-09-06T12:17:24.000Z,5.11
2022-09-06T12:22:24.000Z,4.57
2022-09-06T12:27:24.000Z,4.96
2022-09-06T12:32:25.000Z,5.82
2022-09-06T12:37:24.000Z,5.11
2022-09-06T12:42:25.000Z,4.99
2022-09-06T12:47:25.000Z,4.54
2022-09-06T12:52:25.000Z,5.19
2022-09-06T12:57:25.000Z,4.65
2022-09-06T13:02:24.000Z,4.85
2022-09-06T13:07:25.000Z,5.32
2022-09-06T13:12:25.000Z,6.01
2022-09-06T13:17:24.000Z,5.22
2022-09-06T13:22:24.000Z,5.32
2022-09-06T13:27:24.000Z,6
2022-09-06T13:32:24.000Z,5.99
2022-09-06T13:37:25.000Z,5.55
2022-09-06T13:42:24.000Z,6.42
2022-09-06T13:47:24.000Z,5.47
2022-09-06T13:52:25.000Z,5.73
2022-09-06T13:57:24.000Z,5.78
2022-09-06T14:02:25.000Z,6.01
2022-09-06T14:07:26.000Z,5.34
2022-09-06T14:17:24.000Z,4.78
2022-09-06T14:22:25.000Z,5.17
2022-09-06T14:27:24.000Z,5.06
2022-09-06T14:32:24.000Z,4.95
2022-09-06T14:37:24.000Z,5.42
2022-09-06T14:42:24.000Z,5.26
2022-09-06T14:47:25.000Z,5.16
2022-09-06T14:52:25.000Z,4.78
2022-09-06T14:57:25.000Z,4.52
2022-09-06T15:02:25.000Z,5.08
2022-09-06T15:07:25.000Z,4.94
2022-09-06T15:12:24.000Z,5.25
2022-09-06T15:17:25.000Z,5.76
2022-09-06T15:22:24.000Z,5.97
2022-09-06T15:27:25.000Z,5.75
2022-09-06T15:32:24.000Z,6.92
2022-09-06T15:42:25.000Z,5.49
2022-09-06T15:47:24.000Z,5.5
2022-09-06T15:52:24.000Z,6.68
2022-09-06T15:57:24.000Z,6.97
2022-09-06T16:02:25.000Z,6.92
2022-09-06T16:07:24.000Z,7.13
2022-09-06T16:12:25.000Z,6.87
2022-09-06T16:17:25.000Z,6.75
2022-09-06T16:27:24.000Z,8.22
2022-09-06T16:32:25.000Z,6.4
2022-09-06T16:37:24.000Z,6.41
2022-09-06T16:42:24.000Z,6.47
2022-09-06T16:47:24.000Z,6.7
2022-09-06T16:52:25.000Z,6.48
2022-09-06T16:57:25.000Z,6.93
2022-09-06T17:02:24.000Z,6.88
2022-09-06T17:07:25.000Z,7.13
2022-09-06T17:12:25.000Z,5.99
2022-09-06T17:17:24.000Z,5.58
2022-09-06T17:22:24.000Z,5.88
2022-09-06T17:27:24.000Z,5.9
2022-09-06T17:32:24.000Z,5.78
2022-09-06T17:37:24.000Z,5.4
2022-09-06T17:42:24.000Z,5.88
2022-09-06T17:47:24.000Z,5.78
2022-09-06T17:52:24.000Z,5.74
2022-09-06T17:57:25.000Z,5.36
2022-09-06T18:02:24.000Z,5.57
2022-09-06T18:07:24.000Z,5.98
2022-09-06T18:12:24.000Z,5.61
2022-09-06T18:17:25.000Z,6.42
2022-09-06T18:22:24.000Z,5.62
2022-09-06T18:27:24.000Z,5.46
2022-09-06T18:32:25.000Z,5.57
2022-09-06T18:37:24.000Z,5.51
2022-09-06T18:42:24.000Z,5.88
2022-09-06T18:47:25.000Z,6.08
2022-09-06T18:52:24.000Z,6.46
2022-09-06T18:57:24.000Z,5.68
2022-09-06T19:02:24.000Z,5.72
2022-09-06T19:07:25.000Z,6.12
2022-09-06T19:12:24.000Z,5.72
2022-09-06T19:22:24.000Z,6.34
2022-09-06T19:32:24.000Z,5.95
2022-09-06T19:37:24.000Z,6.31
2022-09-06T19:42:25.000Z,6.59
2022-09-06T19:47:25.000Z,6.48
2022-09-06T19:52:24.000Z,6.07
2022-09-06T19:57:25.000Z,6.5
2022-09-06T20:02:24.000Z,6.24
2022-09-06T20:07:25.000Z,6.58
2022-09-06T20:12:24.000Z,6.44
2022-09-06T20:17:25.000Z,6.33
2022-09-06T20:22:25.000Z,6.34
2022-09-06T20:27:24.000Z,5.99
2022-09-06T20:32:24.000Z,6.55
2022-09-06T20:42:24.000Z,6.4
2022-09-06T20:47:24.000Z,6.56
2022-09-06T20:52:25.000Z,6.75
2022-09-06T20:57:24.000Z,6.31
2022-09-06T21:02:25.000Z,6.53
2022-09-06T21:07:25.000Z,6.73
2022-09-06T21:12:24.000Z,6.75
2022-09-06T21:17:24.000Z,6.7
2022-09-06T21:22:24.000Z,6.78
2022-09-06T21:27:24.000Z,6.6
2022-09-06T21:32:24.000Z,6.56
2022-09-06T21:37:24.000Z,6.52
2022-09-06T21:42:24.000Z,6.76
2022-09-06T21:47:24.000Z,6.46
2022-09-06T21:52:25.000Z,6.96
2022-09-06T21:57:24.000Z,6.84
2022-09-06T22:02:24.000Z,6.86
2022-09-06T22:07:25.000Z,6.52
2022-09-06T22:12:25.000Z,6.64
2022-09-06T22:17:24.000Z,6.94
2022-09-06T22:22:24.000Z,6.69
2022-09-06T22:27:24.000Z,6.71
2022-09-06T22:32:25.000Z,6.59
2022-09-06T22:37:25.000Z,6.5
2022-09-06T22:42:24.000Z,6.57
2022-09-06T22:47:25.000Z,6.68
2022-09-06T22:52:25.000Z,6.63
2022-09-06T22:57:24.000Z,6.67
2022-09-06T23:02:25.000Z,6.58
2022-09-06T23:07:24.000Z,6.86
2022-09-06T23:12:24.000Z,6.81
2022-09-06T23:17:25.000Z,6.7
2022-09-06T23:22:24.000Z,6.64
2022-09-06T23:27:24.000Z,6.9
2022-09-06T23:32:25.000Z,6.75
2022-09-06T23:37:24.000Z,6.84
2022-09-06T23:42:24.000Z,6.7
2022-09-06T23:47:25.000Z,6.52
2022-09-06T23:52:24.000Z,6.93
2022-09-06T23:57:24.000Z,6.95
